Mr T — WSD5840 — position and weather

sailwx.info

Track history (hours):
 
Tides and Currents Weather Stations Pressure Air Temp Water Temp Dewpoint Dewpoint Depression Visibility Wind Speed Wind Dir Waves Ship Positions

Mr T

Owner: GULF SOUTH MARINE TRANSPORTATION, INC, NEW ORLEANS, LA. More information available from US FCC via Universal Licensing System and Coast Guard Vessel Documentation Center.

Last reported at 2018-Feb-02 10:58 UTC. Time now 2018-Feb-23 20:24 UTC.
Position N 29°50' W 091°59'.
Warning: this ship's position is 21 days out of date.

Length 19 m; draft 2.8 m.

Type: Towing. MMSI: 367006230.

Date/timePositionNaut miles runAvg speedWind from/ knotsBaromVisibWave heightAir tempDewpointWater temp
2018-Feb-02 10:58N 29°50' W 091°59'3 5.9
2018-Feb-02 10:30N 29°49' W 092°02'3 5.5
2018-Feb-02 10:00N 29°48' W 092°05'2 3.6
2018-Feb-02 09:30N 29°47' W 092°07'2 4.0
2018-Feb-02 09:00N 29°47' W 092°09'2 3.6
2018-Feb-02 08:30N 29°47' W 092°11'2 3.7
2018-Feb-02 08:00N 29°48' W 092°13'1 2.9
2018-Feb-02 07:30N 29°48' W 092°15'2 4.8
2018-Feb-02 07:00N 29°49' W 092°17'2 4.8
2018-Feb-02 06:30N 29°50' W 092°20'40 4.7
2018-Feb-01 22:00N 29°56' W 093°05'2 4.4
2018-Feb-01 21:30N 29°56' W 093°07'7 3.6
2018-Feb-01 19:30N 30°01' W 093°14'2 4.2
2018-Feb-01 19:00N 30°02' W 093°16'2 4.2
2018-Feb-01 18:30N 30°04' W 093°16'2 3.4
2018-Feb-01 18:00N 30°05' W 093°18'1 2.6
2018-Feb-01 17:30N 30°06' W 093°19'2 4.5
2018-Feb-01 17:00N 30°04' W 093°21'1 1.9
2018-Feb-01 16:30N 30°04' W 093°22'0 0.0
2018-Feb-01 16:00N 30°04' W 093°22'0 0.1
2018-Feb-01 15:30N 30°04' W 093°22'0 0.0
2018-Feb-01 15:00N 30°04' W 093°22'0 0.0
2018-Feb-01 13:30N 30°04' W 093°22'0 0.0
2018-Feb-01 13:00N 30°04' W 093°22'0 0.0
2018-Feb-01 12:30N 30°04' W 093°22'0 0.0
2018-Feb-01 12:00N 30°04' W 093°22'0 0.0
2018-Feb-01 11:00N 30°04' W 093°22'0 0.0
2018-Feb-01 10:30N 30°04' W 093°22'0 0.0
2018-Feb-01 10:00N 30°04' W 093°22'0 0.0
2018-Feb-01 09:30N 30°04' W 093°22'0 0.0
2018-Feb-01 09:00N 30°04' W 093°22'0 0.0
2018-Feb-01 08:30N 30°04' W 093°22'0 0.1
2018-Feb-01 07:30N 30°04' W 093°22'0 0.1
2018-Feb-01 07:00N 30°04' W 093°22'0 0.1
2018-Feb-01 06:30N 30°04' W 093°22'2 3.4
2018-Feb-01 06:00N 30°04' W 093°24'2 3.8
2018-Feb-01 05:30N 30°04' W 093°26'2 3.7
2018-Feb-01 05:00N 30°04' W 093°28'2 3.4
2018-Feb-01 04:30N 30°04' W 093°30'2 3.5
2018-Feb-01 03:59N 30°04' W 093°32'4 3.8
2018-Feb-01 03:00N 30°03' W 093°37'2 4.1
2018-Feb-01 02:28N 30°03' W 093°39'2 4.5
2018-Feb-01 02:00N 30°04' W 093°41'2 4.4
2018-Feb-01 01:30N 30°03' W 093°44'2 4.5
2018-Feb-01 01:00N 30°01' W 093°45'2 4.9
2018-Feb-01 00:30N 29°59' W 093°48'3 5.1
2018-Feb-01 00:00N 29°58' W 093°50'6 5.7
2018-Jan-31 23:00N 29°54' W 093°54'3 6.1
2018-Jan-31 22:30N 29°51' W 093°56'3 1.9
2018-Jan-31 21:00N 29°49' W 093°58'0 0.1
2018-Jan-31 20:30N 29°49' W 093°58'0 0.0
2018-Jan-31 20:00N 29°49' W 093°58'0 0.0
2018-Jan-31 19:30N 29°49' W 093°58'0 0.0
2018-Jan-31 19:00N 29°49' W 093°58'0 0.3
2018-Jan-31 18:30N 29°49' W 093°59'1 1.3
2018-Jan-31 18:00N 29°49' W 093°59'2 4.1
2018-Jan-31 17:30N 29°47' W 094°01'2 4.2
2018-Jan-31 17:00N 29°46' W 094°03'2 4.3
2018-Jan-31 16:31N 29°45' W 094°05'2 4.3
2018-Jan-31 16:00N 29°43' W 094°07'2 4.2
2018-Jan-31 15:31N 29°42' W 094°09'2 3.4
2018-Jan-31 15:00N 29°41' W 094°10'2 3.4
2018-Jan-31 14:30N 29°41' W 094°12'5 3.5
2018-Jan-31 13:00N 29°38' W 094°17'2 3.8
2018-Jan-31 12:30N 29°38' W 094°19'2 3.7
2018-Jan-31 12:00N 29°37' W 094°21'2 3.2
2018-Jan-31 11:30N 29°36' W 094°23'2 3.5
2018-Jan-31 11:00N 29°36' W 094°25'2 3.5
2018-Jan-31 10:30N 29°34' W 094°25'2 3.8
2018-Jan-31 10:00N 29°34' W 094°28'2 3.6
2018-Jan-31 09:30N 29°32' W 094°29'1 1.6
2018-Jan-31 09:00N 29°32' W 094°29'2 4.4
2018-Jan-31 08:30N 29°31' W 094°32'1 1.7
2018-Jan-31 08:00N 29°30' W 094°32'1 2.8
2018-Jan-31 07:30N 29°30' W 094°34'2 4.3
2018-Jan-31 07:00N 29°29' W 094°36'2 4.4
2018-Jan-31 06:27N 29°28' W 094°39'2 3.8
2018-Jan-31 06:00N 29°27' W 094°41'2 4.6
2018-Jan-31 05:30N 29°26' W 094°43'2 4.1
2018-Jan-31 04:55N 29°24' W 094°45'4 3.7
2018-Jan-31 03:54N 29°22' W 094°48'1 2.0
2018-Jan-31 03:30N 29°23' W 094°48'3 3.9
2018-Jan-31 02:49N 29°25' W 094°50'2 4.0
2018-Jan-31 02:25N 29°27' W 094°51'2 4.1
2018-Jan-31 01:53N 29°29' W 094°52'2 4.0
2018-Jan-31 01:28N 29°30' W 094°52'2 3.5
2018-Jan-31 01:00N 29°32' W 094°53'4 3.8
2018-Jan-31 00:00N 29°35' W 094°56'2 4.6
2018-Jan-30 23:30N 29°37' W 094°57'3 4.7
2018-Jan-30 22:52N 29°39' W 094°58'2 4.6
2018-Jan-30 22:30N 29°41' W 094°59'4 3.9
2018-Jan-30 21:30N 29°44' W 095°02'3 4.1
2018-Jan-30 20:44N 29°46' W 095°05'1 2.7
2018-Jan-30 20:25N 29°47' W 095°05'1 0.1
2018-Jan-30 01:46N 29°46' W 095°05'2 4.2
2018-Jan-30 01:18N 29°44' W 095°07'2 0.5
2018-Jan-29 21:53N 29°44' W 095°09'2 5.3
2018-Jan-29 21:26N 29°45' W 095°06'1 2.6
2018-Jan-29 20:52N 29°46' W 095°06'1 0.1
2018-Jan-29 15:40N 29°46' W 095°05'1 3.9
2018-Jan-29 15:23N 29°47' W 095°05'1 1.8
2018-Jan-29 14:55N 29°47' W 095°04'0 0.0
2018-Jan-29 14:30N 29°47' W 095°04'3 1.5
2018-Jan-29 12:16N 29°44' W 095°03'2 4.9
2018-Jan-29 11:55N 29°43' W 095°01'2 4.3
2018-Jan-29 11:30N 29°42' W 095°00'3 5.2
2018-Jan-29 11:00N 29°40' W 094°58'3 5.7
2018-Jan-29 10:30N 29°37' W 094°57'3 5.6
2018-Jan-29 10:00N 29°35' W 094°56'3 5.6
2018-Jan-29 09:30N 29°32' W 094°54'3 5.2
2018-Jan-29 08:59N 29°30' W 094°52'  
2018-Jan-26 04:48N 29°32' W 090°52'1 5.0
2018-Jan-26 04:30N 29°32' W 090°50'3 5.1
2018-Jan-26 04:00N 29°32' W 090°47'2 4.4
2018-Jan-26 03:30N 29°33' W 090°45'2 4.0
2018-Jan-26 03:00N 29°34' W 090°43'2 3.7
2018-Jan-26 02:30N 29°36' W 090°43'1 2.2
2018-Jan-26 02:00N 29°37' W 090°41'2 3.6
2018-Jan-26 01:30N 29°36' W 090°39'2 4.2
2018-Jan-26 01:00N 29°35' W 090°37'2 3.7
2018-Jan-26 00:30N 29°35' W 090°35'2 4.4
2018-Jan-26 00:00N 29°34' W 090°33'  
Track history (hours):
 
Tides and Currents Weather Stations Pressure Air Temp Water Temp Dewpoint Dewpoint Depression Visibility Wind Speed Wind Dir Waves Ship Positions

Mr T

Owner: GULF SOUTH MARINE TRANSPORTATION, INC, NEW ORLEANS, LA. More information available from US FCC via Universal Licensing System and Coast Guard Vessel Documentation Center.

Last reported at 2018-Feb-02 10:58 UTC. Time now 2018-Feb-23 20:24 UTC.
Position N 29°50' W 091°59'.
Warning: this ship's position is 21 days out of date.

Length 19 m; draft 2.8 m.

Type: Towing. MMSI: 367006230.

Date/timePositionNaut miles runAvg speedWind from/ knotsBaromVisibWave heightAir tempDewpointWater temp
2018-Feb-02 10:58N 29°50' W 091°59'3 5.9
2018-Feb-02 10:30N 29°49' W 092°02'3 5.5
2018-Feb-02 10:00N 29°48' W 092°05'2 3.6
2018-Feb-02 09:30N 29°47' W 092°07'2 4.0
2018-Feb-02 09:00N 29°47' W 092°09'2 3.6
2018-Feb-02 08:30N 29°47' W 092°11'2 3.7
2018-Feb-02 08:00N 29°48' W 092°13'1 2.9
2018-Feb-02 07:30N 29°48' W 092°15'2 4.8
2018-Feb-02 07:00N 29°49' W 092°17'2 4.8
2018-Feb-02 06:30N 29°50' W 092°20'40 4.7
2018-Feb-01 22:00N 29°56' W 093°05'2 4.4
2018-Feb-01 21:30N 29°56' W 093°07'7 3.6
2018-Feb-01 19:30N 30°01' W 093°14'2 4.2
2018-Feb-01 19:00N 30°02' W 093°16'2 4.2
2018-Feb-01 18:30N 30°04' W 093°16'2 3.4
2018-Feb-01 18:00N 30°05' W 093°18'1 2.6
2018-Feb-01 17:30N 30°06' W 093°19'2 4.5
2018-Feb-01 17:00N 30°04' W 093°21'1 1.9
2018-Feb-01 16:30N 30°04' W 093°22'0 0.0
2018-Feb-01 16:00N 30°04' W 093°22'0 0.1
2018-Feb-01 15:30N 30°04' W 093°22'0 0.0
2018-Feb-01 15:00N 30°04' W 093°22'0 0.0
2018-Feb-01 13:30N 30°04' W 093°22'0 0.0
2018-Feb-01 13:00N 30°04' W 093°22'0 0.0
2018-Feb-01 12:30N 30°04' W 093°22'0 0.0
2018-Feb-01 12:00N 30°04' W 093°22'0 0.0
2018-Feb-01 11:00N 30°04' W 093°22'0 0.0
2018-Feb-01 10:30N 30°04' W 093°22'0 0.0
2018-Feb-01 10:00N 30°04' W 093°22'0 0.0
2018-Feb-01 09:30N 30°04' W 093°22'0 0.0
2018-Feb-01 09:00N 30°04' W 093°22'0 0.0
2018-Feb-01 08:30N 30°04' W 093°22'0 0.1
2018-Feb-01 07:30N 30°04' W 093°22'0 0.1
2018-Feb-01 07:00N 30°04' W 093°22'0 0.1
2018-Feb-01 06:30N 30°04' W 093°22'2 3.4
2018-Feb-01 06:00N 30°04' W 093°24'2 3.8
2018-Feb-01 05:30N 30°04' W 093°26'2 3.7
2018-Feb-01 05:00N 30°04' W 093°28'2 3.4
2018-Feb-01 04:30N 30°04' W 093°30'2 3.5
2018-Feb-01 03:59N 30°04' W 093°32'4 3.8
2018-Feb-01 03:00N 30°03' W 093°37'2 4.1
2018-Feb-01 02:28N 30°03' W 093°39'2 4.5
2018-Feb-01 02:00N 30°04' W 093°41'2 4.4
2018-Feb-01 01:30N 30°03' W 093°44'2 4.5
2018-Feb-01 01:00N 30°01' W 093°45'2 4.9
2018-Feb-01 00:30N 29°59' W 093°48'3 5.1
2018-Feb-01 00:00N 29°58' W 093°50'6 5.7
2018-Jan-31 23:00N 29°54' W 093°54'3 6.1
2018-Jan-31 22:30N 29°51' W 093°56'3 1.9
2018-Jan-31 21:00N 29°49' W 093°58'0 0.1
2018-Jan-31 20:30N 29°49' W 093°58'0 0.0
2018-Jan-31 20:00N 29°49' W 093°58'0 0.0
2018-Jan-31 19:30N 29°49' W 093°58'0 0.0
2018-Jan-31 19:00N 29°49' W 093°58'0 0.3
2018-Jan-31 18:30N 29°49' W 093°59'1 1.3
2018-Jan-31 18:00N 29°49' W 093°59'2 4.1
2018-Jan-31 17:30N 29°47' W 094°01'2 4.2
2018-Jan-31 17:00N 29°46' W 094°03'2 4.3
2018-Jan-31 16:31N 29°45' W 094°05'2 4.3
2018-Jan-31 16:00N 29°43' W 094°07'2 4.2
2018-Jan-31 15:31N 29°42' W 094°09'2 3.4
2018-Jan-31 15:00N 29°41' W 094°10'2 3.4
2018-Jan-31 14:30N 29°41' W 094°12'5 3.5
2018-Jan-31 13:00N 29°38' W 094°17'2 3.8
2018-Jan-31 12:30N 29°38' W 094°19'2 3.7
2018-Jan-31 12:00N 29°37' W 094°21'2 3.2
2018-Jan-31 11:30N 29°36' W 094°23'2 3.5
2018-Jan-31 11:00N 29°36' W 094°25'2 3.5
2018-Jan-31 10:30N 29°34' W 094°25'2 3.8
2018-Jan-31 10:00N 29°34' W 094°28'2 3.6
2018-Jan-31 09:30N 29°32' W 094°29'1 1.6
2018-Jan-31 09:00N 29°32' W 094°29'2 4.4
2018-Jan-31 08:30N 29°31' W 094°32'1 1.7
2018-Jan-31 08:00N 29°30' W 094°32'1 2.8
2018-Jan-31 07:30N 29°30' W 094°34'2 4.3
2018-Jan-31 07:00N 29°29' W 094°36'2 4.4
2018-Jan-31 06:27N 29°28' W 094°39'2 3.8
2018-Jan-31 06:00N 29°27' W 094°41'2 4.6
2018-Jan-31 05:30N 29°26' W 094°43'2 4.1
2018-Jan-31 04:55N 29°24' W 094°45'4 3.7
2018-Jan-31 03:54N 29°22' W 094°48'1 2.0
2018-Jan-31 03:30N 29°23' W 094°48'3 3.9
2018-Jan-31 02:49N 29°25' W 094°50'2 4.0
2018-Jan-31 02:25N 29°27' W 094°51'2 4.1
2018-Jan-31 01:53N 29°29' W 094°52'2 4.0
2018-Jan-31 01:28N 29°30' W 094°52'2 3.5
2018-Jan-31 01:00N 29°32' W 094°53'4 3.8
2018-Jan-31 00:00N 29°35' W 094°56'2 4.6
2018-Jan-30 23:30N 29°37' W 094°57'3 4.7
2018-Jan-30 22:52N 29°39' W 094°58'2 4.6
2018-Jan-30 22:30N 29°41' W 094°59'4 3.9
2018-Jan-30 21:30N 29°44' W 095°02'3 4.1
2018-Jan-30 20:44N 29°46' W 095°05'1 2.7
2018-Jan-30 20:25N 29°47' W 095°05'1 0.1
2018-Jan-30 01:46N 29°46' W 095°05'2 4.2
2018-Jan-30 01:18N 29°44' W 095°07'2 0.5
2018-Jan-29 21:53N 29°44' W 095°09'2 5.3
2018-Jan-29 21:26N 29°45' W 095°06'1 2.6
2018-Jan-29 20:52N 29°46' W 095°06'1 0.1
2018-Jan-29 15:40N 29°46' W 095°05'1 3.9
2018-Jan-29 15:23N 29°47' W 095°05'1 1.8
2018-Jan-29 14:55N 29°47' W 095°04'0 0.0
2018-Jan-29 14:30N 29°47' W 095°04'3 1.5
2018-Jan-29 12:16N 29°44' W 095°03'2 4.9
2018-Jan-29 11:55N 29°43' W 095°01'2 4.3
2018-Jan-29 11:30N 29°42' W 095°00'3 5.2
2018-Jan-29 11:00N 29°40' W 094°58'3 5.7
2018-Jan-29 10:30N 29°37' W 094°57'3 5.6
2018-Jan-29 10:00N 29°35' W 094°56'3 5.6
2018-Jan-29 09:30N 29°32' W 094°54'3 5.2
2018-Jan-29 08:59N 29°30' W 094°52'  
2018-Jan-26 04:48N 29°32' W 090°52'1 5.0
2018-Jan-26 04:30N 29°32' W 090°50'3 5.1
2018-Jan-26 04:00N 29°32' W 090°47'2 4.4
2018-Jan-26 03:30N 29°33' W 090°45'2 4.0
2018-Jan-26 03:00N 29°34' W 090°43'2 3.7
2018-Jan-26 02:30N 29°36' W 090°43'1 2.2
2018-Jan-26 02:00N 29°37' W 090°41'2 3.6
2018-Jan-26 01:30N 29°36' W 090°39'2 4.2
2018-Jan-26 01:00N 29°35' W 090°37'2 3.7
2018-Jan-26 00:30N 29°35' W 090°35'2 4.4
2018-Jan-26 00:00N 29°34' W 090°33'  

Dump ship's entire track history